createdAt,value
2018-07-03T00:00:13.863Z,24.10
2018-07-03T00:00:45.047Z,23.50
2018-07-03T00:01:16.221Z,23.57
2018-07-03T00:01:47.425Z,24.23
2018-07-03T00:02:19.825Z,24.60
2018-07-03T00:02:51.005Z,24.70
2018-07-03T00:03:22.250Z,24.33
2018-07-03T00:03:53.521Z,24.87
2018-07-03T00:04:24.764Z,25.83
2018-07-03T00:04:55.946Z,25.37
2018-07-03T00:05:27.125Z,24.20
2018-07-03T00:05:58.314Z,24.97
2018-07-03T00:06:30.165Z,24.87
2018-07-03T00:07:01.409Z,23.83
2018-07-03T00:07:32.585Z,23.33
2018-07-03T00:08:03.764Z,25.07
2018-07-03T00:08:34.944Z,24.33
2018-07-03T00:09:06.214Z,24.43
2018-07-03T00:09:37.400Z,24.47
2018-07-03T00:10:08.602Z,24.20
2018-07-03T00:10:39.793Z,23.77
2018-07-03T00:11:11.089Z,23.93
2018-07-03T00:11:42.316Z,23.90
2018-07-03T00:12:13.510Z,24.47
2018-07-03T00:12:44.736Z,24.63
2018-07-03T00:13:15.919Z,24.67
2018-07-03T00:13:47.153Z,24.13
2018-07-03T00:14:18.392Z,23.90
2018-07-03T00:14:50.316Z,23.83
2018-07-03T00:15:21.497Z,23.40
2018-07-03T00:15:52.673Z,24.23
2018-07-03T00:16:23.884Z,24.07
2018-07-03T00:16:55.056Z,22.67
2018-07-03T00:17:26.279Z,23.60
2018-07-03T00:17:57.488Z,23.23
2018-07-03T00:18:28.668Z,23.03
2018-07-03T00:18:59.852Z,22.77
2018-07-03T00:19:31.076Z,22.33
2018-07-03T00:20:02.888Z,22.43
2018-07-03T00:20:34.981Z,22.07
2018-07-03T00:21:06.869Z,22.27
2018-07-03T00:21:38.059Z,22.53
2018-07-03T00:22:09.289Z,22.63
2018-07-03T00:22:41.650Z,22.67
2018-07-03T00:23:12.824Z,23.50
2018-07-03T00:23:44.605Z,23.70
2018-07-03T00:24:15.782Z,22.90
2018-07-03T00:24:47.021Z,23.83
2018-07-03T00:25:18.208Z,23.17
2018-07-03T00:25:49.376Z,23.40
2018-07-03T00:26:20.558Z,23.63
2018-07-03T00:26:51.740Z,24.00
2018-07-03T00:27:22.920Z,23.27
2018-07-03T00:27:54.105Z,24.43
2018-07-03T00:28:26.483Z,22.40
2018-07-03T00:28:57.660Z,23.13
2018-07-03T00:29:28.840Z,23.57
2018-07-03T00:30:00.078Z,22.23
2018-07-03T00:30:31.322Z,23.47
2018-07-03T00:31:02.503Z,22.70
2018-07-03T00:31:33.752Z,22.90
2018-07-03T00:32:04.940Z,23.30
2018-07-03T00:32:36.108Z,23.43
2018-07-03T00:33:07.290Z,24.00
2018-07-03T00:33:38.570Z,23.50
2018-07-03T00:34:09.764Z,23.70
2018-07-03T00:34:41.001Z,24.33
2018-07-03T00:35:12.190Z,22.33
2018-07-03T00:35:43.377Z,22.80
2018-07-03T00:36:14.609Z,23.10
2018-07-03T00:36:45.797Z,22.20
2018-07-03T00:37:16.970Z,23.83
2018-07-03T00:37:48.197Z,23.90
2018-07-03T00:38:19.520Z,24.07
2018-07-03T00:38:50.696Z,24.17
2018-07-03T00:39:21.933Z,22.80
2018-07-03T00:39:53.129Z,23.53
2018-07-03T00:40:24.330Z,22.63
2018-07-03T00:40:55.504Z,23.37
2018-07-03T00:41:26.716Z,23.03
2018-07-03T00:41:57.896Z,22.70
2018-07-03T00:42:29.077Z,22.90
2018-07-03T00:43:00.245Z,22.90
2018-07-03T00:43:31.422Z,22.23
2018-07-03T00:44:02.592Z,22.13
2018-07-03T00:44:33.804Z,23.47
2018-07-03T00:45:05.049Z,22.43
2018-07-03T00:45:36.241Z,22.90
2018-07-03T00:46:07.483Z,23.23
2018-07-03T00:46:38.724Z,22.13
2018-07-03T00:47:09.963Z,21.40
2018-07-03T00:47:41.160Z,20.03
2018-07-03T00:48:12.338Z,21.13
2018-07-03T00:48:43.508Z,20.63
2018-07-03T00:49:14.738Z,21.30
2018-07-03T00:49:45.980Z,20.87
2018-07-03T00:50:17.162Z,21.53
2018-07-03T00:50:48.332Z,21.40
2018-07-03T00:51:19.609Z,21.13
2018-07-03T00:51:50.792Z,22.07
2018-07-03T00:52:21.980Z,21.07
2018-07-03T00:52:53.149Z,20.40
2018-07-03T00:53:24.332Z,19.37
2018-07-03T00:53:55.501Z,20.07
2018-07-03T00:54:26.684Z,20.43
2018-07-03T00:54:57.917Z,21.70
2018-07-03T00:55:29.155Z,20.87
2018-07-03T00:56:00.341Z,21.43
2018-07-03T00:56:32.169Z,21.80
2018-07-03T00:57:03.361Z,22.77
2018-07-03T00:57:34.545Z,22.90
2018-07-03T00:58:05.736Z,23.07
2018-07-03T00:58:36.913Z,23.63
2018-07-03T00:59:08.084Z,23.43
2018-07-03T00:59:39.309Z,23.60
2018-07-03T01:00:10.528Z,23.60
2018-07-03T01:00:41.711Z,23.53
2018-07-03T01:01:12.886Z,23.40
2018-07-03T01:01:44.063Z,23.80
2018-07-03T01:02:15.236Z,23.87
2018-07-03T01:02:46.470Z,22.47
2018-07-03T01:03:17.645Z,23.23
2018-07-03T01:03:48.877Z,24.83
2018-07-03T01:04:20.107Z,24.30
2018-07-03T01:04:51.296Z,23.73
2018-07-03T01:05:22.510Z,24.77
2018-07-03T01:05:53.684Z,24.13
2018-07-03T01:06:24.854Z,24.87
2018-07-03T01:06:56.078Z,23.73
2018-07-03T01:07:27.323Z,23.87
2018-07-03T01:07:58.533Z,24.07
2018-07-03T01:08:29.701Z,23.43
2018-07-03T01:09:00.876Z,23.57
2018-07-03T01:09:32.100Z,23.93
2018-07-03T01:10:03.296Z,23.33
2018-07-03T01:10:34.464Z,22.00
2018-07-03T01:11:05.697Z,23.23
2018-07-03T01:11:36.935Z,21.83
2018-07-03T01:12:08.112Z,22.60
2018-07-03T01:12:39.283Z,22.07
2018-07-03T01:13:10.519Z,20.60
2018-07-03T01:13:41.723Z,22.43
2018-07-03T01:14:12.906Z,23.67
2018-07-03T01:14:44.091Z,23.77
2018-07-03T01:15:15.309Z,22.70
2018-07-03T01:15:46.487Z,22.37
2018-07-03T01:16:17.666Z,22.20
2018-07-03T01:16:48.836Z,22.20
2018-07-03T01:17:20.024Z,22.73
2018-07-03T01:17:51.195Z,22.13
2018-07-03T01:18:22.376Z,23.23
2018-07-03T01:18:53.601Z,23.97
2018-07-03T01:19:24.820Z,23.20
2018-07-03T01:19:56.049Z,23.60
2018-07-03T01:20:27.239Z,23.70
2018-07-03T01:20:58.457Z,24.00
2018-07-03T01:21:29.677Z,23.33
2018-07-03T01:22:01.128Z,23.87
2018-07-03T01:22:32.317Z,24.17
2018-07-03T01:23:03.530Z,25.00
2018-07-03T01:23:34.752Z,23.80
2018-07-03T01:24:05.942Z,24.83
2018-07-03T01:24:37.120Z,21.33
2018-07-03T01:25:09.327Z,22.00
2018-07-03T01:25:40.496Z,25.67
2018-07-03T01:26:11.683Z,25.80
2018-07-03T01:26:42.864Z,22.30
2018-07-03T01:27:14.125Z,23.53
2018-07-03T01:27:45.353Z,24.70
2018-07-03T01:28:16.604Z,24.97
2018-07-03T01:28:47.861Z,22.83
2018-07-03T01:29:20.021Z,22.80
2018-07-03T01:29:51.200Z,24.07
2018-07-03T01:30:22.428Z,22.07
2018-07-03T01:30:53.613Z,23.73
2018-07-03T01:31:24.797Z,23.60
2018-07-03T01:31:55.992Z,24.43
2018-07-03T01:32:27.159Z,22.47
2018-07-03T01:32:59.493Z,22.63
2018-07-03T01:33:30.713Z,23.07
2018-07-03T01:34:01.876Z,22.53
2018-07-03T01:34:33.105Z,25.13
2018-07-03T01:35:04.309Z,24.00
2018-07-03T01:35:35.550Z,24.23
2018-07-03T01:36:06.774Z,22.57
2018-07-03T01:36:38.013Z,24.13
2018-07-03T01:37:09.220Z,23.00
2018-07-03T01:37:40.400Z,22.07
2018-07-03T01:38:11.620Z,23.47
2018-07-03T01:38:42.868Z,22.70
2018-07-03T01:39:14.052Z,24.40
2018-07-03T01:39:45.241Z,22.80
2018-07-03T01:40:16.428Z,25.10
2018-07-03T01:40:47.651Z,25.37
2018-07-03T01:41:18.881Z,26.23
2018-07-03T01:41:50.059Z,24.87
2018-07-03T01:42:21.392Z,26.10
2018-07-03T01:42:52.620Z,25.17
2018-07-03T01:43:23.860Z,22.60
2018-07-03T01:43:55.039Z,24.70
2018-07-03T01:44:26.204Z,24.30
2018-07-03T01:44:57.429Z,25.53
2018-07-03T01:45:28.605Z,24.03
2018-07-03T01:45:59.873Z,24.47
2018-07-03T01:46:31.053Z,26.70
2018-07-03T01:47:02.228Z,27.13
2018-07-03T01:47:33.997Z,22.80
2018-07-03T01:48:05.181Z,26.07
2018-07-03T01:48:36.382Z,26.70
2018-07-03T01:49:07.568Z,25.13
2018-07-03T01:49:38.751Z,25.33
2018-07-03T01:50:10.009Z,26.20
2018-07-03T01:50:41.192Z,23.43
2018-07-03T01:51:12.413Z,25.80
2018-07-03T01:51:43.652Z,24.70
2018-07-03T01:52:14.897Z,23.80
2018-07-03T01:52:46.089Z,25.20
2018-07-03T01:53:17.268Z,22.23
2018-07-03T01:53:48.443Z,23.20
2018-07-03T01:54:19.668Z,24.80
2018-07-03T01:54:50.944Z,23.10
2018-07-03T01:55:22.173Z,21.77
2018-07-03T01:55:53.352Z,24.07
2018-07-03T01:56:24.531Z,23.90
2018-07-03T01:56:55.749Z,25.70
2018-07-03T01:57:26.952Z,25.17
2018-07-03T01:57:58.185Z,24.73
2018-07-03T01:58:29.359Z,27.37
2018-07-03T01:59:00.544Z,26.13
2018-07-03T01:59:32.061Z,26.93
2018-07-03T02:00:03.259Z,27.37
2018-07-03T02:00:34.534Z,25.67
2018-07-03T02:01:06.875Z,23.20
2018-07-03T02:01:38.060Z,25.40
2018-07-03T02:02:09.280Z,25.73
2018-07-03T02:02:40.464Z,22.77
2018-07-03T02:03:11.693Z,24.93
2018-07-03T02:03:42.914Z,26.23
2018-07-03T02:04:14.353Z,26.67
2018-07-03T02:04:45.592Z,25.30
2018-07-03T02:05:16.903Z,25.13
2018-07-03T02:05:48.132Z,25.33
2018-07-03T02:06:19.360Z,24.30
2018-07-03T02:06:50.582Z,23.73
2018-07-03T02:07:21.815Z,22.90
2018-07-03T02:07:53.112Z,24.98
2018-07-03T02:08:24.359Z,25.20
2018-07-03T02:08:55.549Z,23.33
2018-07-03T02:09:26.803Z,24.47
2018-07-03T02:09:57.985Z,26.33
2018-07-03T02:10:29.228Z,25.27
2018-07-03T02:11:00.467Z,25.47
2018-07-03T02:11:31.649Z,27.03
2018-07-03T02:12:02.846Z,25.10
2018-07-03T02:12:34.028Z,25.40
2018-07-03T02:13:05.204Z,26.67
2018-07-03T02:13:36.486Z,25.67
2018-07-03T02:14:07.669Z,27.97
2018-07-03T02:14:38.864Z,27.57
2018-07-03T02:15:10.044Z,27.10
2018-07-03T02:15:41.273Z,27.60
2018-07-03T02:16:12.521Z,28.50
2018-07-03T02:16:43.731Z,28.25
2018-07-03T02:17:14.909Z,27.47
2018-07-03T02:17:46.150Z,26.60
2018-07-03T02:18:17.346Z,27.37
2018-07-03T02:18:48.574Z,27.62
2018-07-03T02:19:19.778Z,27.67
2018-07-03T02:19:50.960Z,26.45
2018-07-03T02:20:22.141Z,25.82
2018-07-03T02:20:53.364Z,26.15
2018-07-03T02:21:24.540Z,27.23
2018-07-03T02:21:55.748Z,27.05
2018-07-03T02:22:26.937Z,27.10
2018-07-03T02:22:58.174Z,27.35
2018-07-03T02:23:29.352Z,27.03
2018-07-03T02:24:00.580Z,25.90
2018-07-03T02:24:31.808Z,26.60
2018-07-03T02:25:02.997Z,26.13
2018-07-03T02:25:34.172Z,24.97
2018-07-03T02:26:05.405Z,25.50
2018-07-03T02:26:36.591Z,25.37
2018-07-03T02:27:07.817Z,25.23
2018-07-03T02:27:38.998Z,24.50
2018-07-03T02:28:10.184Z,25.23
2018-07-03T02:28:41.372Z,25.13
2018-07-03T02:29:12.565Z,24.63
2018-07-03T02:29:43.736Z,25.03
2018-07-03T02:30:15.001Z,25.33
2018-07-03T02:30:46.196Z,25.48
2018-07-03T02:31:17.370Z,25.13
2018-07-03T02:31:48.548Z,26.10
2018-07-03T02:32:19.787Z,25.17
2018-07-03T02:32:50.985Z,25.50
2018-07-03T02:33:22.172Z,24.63
2018-07-03T02:33:53.346Z,25.13
2018-07-03T02:34:24.620Z,25.67
2018-07-03T02:34:55.940Z,25.40
2018-07-03T02:35:27.183Z,24.25
2018-07-03T02:35:58.441Z,25.32
2018-07-03T02:36:29.638Z,24.93
2018-07-03T02:37:00.836Z,25.83
2018-07-03T02:37:32.008Z,26.27
2018-07-03T02:38:03.241Z,26.60
2018-07-03T02:38:34.444Z,26.27
2018-07-03T02:39:05.670Z,24.57
2018-07-03T02:39:36.861Z,25.30
2018-07-03T02:40:08.075Z,25.97
2018-07-03T02:40:39.252Z,25.50
2018-07-03T02:41:10.993Z,26.23
2018-07-03T02:41:42.173Z,25.90
2018-07-03T02:42:13.349Z,26.57
2018-07-03T02:42:44.646Z,25.57
2018-07-03T02:43:15.880Z,25.73
2018-07-03T02:43:47.149Z,26.37
2018-07-03T02:44:18.346Z,26.37
2018-07-03T02:44:49.585Z,25.25
2018-07-03T02:45:21.488Z,25.95
2018-07-03T02:45:52.757Z,24.37
2018-07-03T02:46:23.947Z,24.13
2018-07-03T02:46:55.128Z,26.10
2018-07-03T02:47:26.353Z,23.77
2018-07-03T02:47:57.542Z,23.33
2018-07-03T02:48:28.716Z,23.33
2018-07-03T02:48:59.930Z,21.70
2018-07-03T02:49:31.109Z,23.37
2018-07-03T02:50:02.305Z,23.90
2018-07-03T02:50:33.548Z,23.47
2018-07-03T02:51:04.777Z,21.93
2018-07-03T02:51:36.013Z,21.77
2018-07-03T02:52:07.293Z,23.10
2018-07-03T02:52:38.489Z,23.73
2018-07-03T02:53:09.715Z,22.77
2018-07-03T02:53:40.997Z,23.07
2018-07-03T02:54:12.176Z,23.80
2018-07-03T02:54:43.401Z,24.33
2018-07-03T02:55:14.595Z,24.67
2018-07-03T02:55:45.765Z,24.53
2018-07-03T02:56:16.948Z,23.47
2018-07-03T02:56:48.173Z,24.43
2018-07-03T02:57:19.360Z,25.10
2018-07-03T02:57:50.573Z,24.83
2018-07-03T02:58:21.750Z,24.90
2018-07-03T02:58:52.921Z,24.87
2018-07-03T02:59:24.139Z,25.37
2018-07-03T02:59:55.320Z,25.20
2018-07-03T03:00:26.505Z,24.80
2018-07-03T03:00:57.687Z,25.07
2018-07-03T03:01:28.863Z,26.07
2018-07-03T03:02:00.048Z,25.13
2018-07-03T03:02:31.274Z,24.53
2018-07-03T03:03:02.485Z,23.93
2018-07-03T03:03:33.721Z,24.77
2018-07-03T03:04:04.957Z,25.03
2018-07-03T03:04:36.140Z,26.53
2018-07-03T03:05:07.362Z,25.47
2018-07-03T03:05:38.581Z,26.00
2018-07-03T03:06:09.757Z,25.97
2018-07-03T03:06:40.964Z,25.43
2018-07-03T03:07:12.145Z,25.08
2018-07-03T03:07:43.324Z,25.17
2018-07-03T03:08:14.588Z,25.03
2018-07-03T03:08:46.085Z,24.90
2018-07-03T03:09:17.266Z,25.30
2018-07-03T03:09:48.446Z,25.07
2018-07-03T03:10:19.631Z,24.83
2018-07-03T03:10:50.921Z,24.53
2018-07-03T03:11:22.110Z,23.37
2018-07-03T03:11:53.324Z,24.30
2018-07-03T03:12:24.507Z,23.53
2018-07-03T03:12:55.685Z,22.83
2018-07-03T03:13:26.921Z,23.30
2018-07-03T03:13:58.114Z,24.17
2018-07-03T03:14:29.361Z,24.30
2018-07-03T03:15:01.083Z,24.13
2018-07-03T03:15:32.257Z,22.13
2018-07-03T03:16:03.478Z,24.00
2018-07-03T03:16:34.656Z,23.87
2018-07-03T03:17:05.841Z,23.73
2018-07-03T03:17:37.051Z,24.13
2018-07-03T03:18:08.285Z,24.40
2018-07-03T03:18:39.475Z,24.03
2018-07-03T03:19:11.509Z,23.40
2018-07-03T03:19:42.760Z,24.27
2018-07-03T03:20:14.022Z,23.43
2018-07-03T03:20:45.201Z,24.63
2018-07-03T03:21:16.425Z,24.13
2018-07-03T03:21:47.656Z,24.67
2018-07-03T03:22:18.892Z,24.67
2018-07-03T03:22:50.100Z,24.10
2018-07-03T03:23:21.300Z,23.47
2018-07-03T03:23:52.491Z,23.33
2018-07-03T03:24:23.670Z,23.73
2018-07-03T03:24:54.906Z,23.70
2018-07-03T03:25:26.153Z,23.47
2018-07-03T03:25:57.411Z,23.10
2018-07-03T03:26:28.692Z,23.00
2018-07-03T03:26:59.880Z,22.50
2018-07-03T03:27:31.489Z,22.07
2018-07-03T03:28:02.727Z,22.03
2018-07-03T03:28:33.897Z,20.13
2018-07-03T03:29:05.084Z,21.77
2018-07-03T03:29:36.266Z,21.93
2018-07-03T03:30:07.455Z,21.00
2018-07-03T03:30:38.632Z,20.40
2018-07-03T03:31:10.378Z,21.27
2018-07-03T03:31:41.603Z,19.50
2018-07-03T03:32:12.883Z,19.90
2018-07-03T03:32:45.243Z,19.17
2018-07-03T03:33:16.468Z,20.00
2018-07-03T03:33:47.670Z,17.70
2018-07-03T03:34:18.849Z,19.67
2018-07-03T03:34:50.058Z,18.90
2018-07-03T03:35:21.232Z,18.77
2018-07-03T03:35:52.549Z,17.57
2018-07-03T03:36:23.784Z,19.70
2018-07-03T03:36:55.033Z,19.83
2018-07-03T03:37:26.248Z,20.37
2018-07-03T03:37:57.431Z,20.10
2018-07-03T03:38:28.621Z,18.97
2018-07-03T03:38:59.865Z,20.20
2018-07-03T03:39:31.053Z,20.03
2018-07-03T03:40:02.249Z,20.83
2018-07-03T03:40:33.493Z,20.00
2018-07-03T03:41:04.676Z,19.30
2018-07-03T03:41:35.909Z,19.40
2018-07-03T03:42:07.101Z,19.63
2018-07-03T03:42:38.324Z,18.90
2018-07-03T03:43:09.517Z,18.80
2018-07-03T03:43:40.688Z,16.27
2018-07-03T03:44:11.871Z,19.53
2018-07-03T03:44:43.103Z,20.00
2018-07-03T03:45:14.299Z,19.47
2018-07-03T03:45:45.483Z,19.20
2018-07-03T03:46:16.665Z,19.23
2018-07-03T03:46:47.853Z,19.57
2018-07-03T03:47:19.081Z,19.43
2018-07-03T03:47:51.428Z,19.90
2018-07-03T03:48:22.621Z,19.13
2018-07-03T03:48:54.695Z,19.33
2018-07-03T03:49:26.089Z,19.30
2018-07-03T03:49:57.334Z,18.43
2018-07-03T03:50:28.622Z,18.70
2018-07-03T03:50:59.877Z,19.63
2018-07-03T03:51:31.125Z,18.60
2018-07-03T03:52:02.308Z,18.43
2018-07-03T03:52:33.485Z,18.33
2018-07-03T03:53:04.765Z,18.67
2018-07-03T03:53:35.964Z,18.30
2018-07-03T03:54:07.151Z,18.70
2018-07-03T03:54:38.412Z,18.30
2018-07-03T03:55:09.599Z,18.50
2018-07-03T03:55:40.777Z,19.20
2018-07-03T03:56:12.005Z,18.20
2018-07-03T03:56:43.205Z,17.73
2018-07-03T03:57:14.433Z,18.20
2018-07-03T03:57:45.670Z,17.03
2018-07-03T03:58:16.928Z,18.80
2018-07-03T03:58:48.180Z,17.10
2018-07-03T03:59:19.404Z,17.67
2018-07-03T03:59:50.596Z,18.47
2018-07-03T04:00:21.818Z,18.00
2018-07-03T04:00:53.065Z,18.00
2018-07-03T04:01:24.217Z,18.30
2018-07-03T04:01:55.439Z,18.57
2018-07-03T04:02:26.619Z,18.37
2018-07-03T04:02:57.852Z,17.40
2018-07-03T04:03:29.043Z,18.13
2018-07-03T04:04:00.257Z,18.37
2018-07-03T04:04:31.433Z,17.80
2018-07-03T04:05:02.666Z,18.00
2018-07-03T04:05:33.993Z,18.67
2018-07-03T04:06:05.815Z,17.97
2018-07-03T04:06:37.591Z,18.13
2018-07-03T04:07:09.853Z,18.50
2018-07-03T04:07:41.060Z,17.87
2018-07-03T04:08:12.258Z,18.33
2018-07-03T04:08:43.461Z,17.80
2018-07-03T04:09:14.701Z,17.97
2018-07-03T04:09:45.897Z,18.23
2018-07-03T04:10:17.089Z,17.03
2018-07-03T04:10:48.378Z,18.77
2018-07-03T04:11:19.580Z,18.63
2018-07-03T04:11:50.764Z,18.60
2018-07-03T04:12:21.944Z,18.07
2018-07-03T04:12:53.123Z,17.80
2018-07-03T04:13:24.319Z,18.13
2018-07-03T04:13:55.509Z,16.90
2018-07-03T04:14:26.750Z,17.07
2018-07-03T04:14:58.025Z,17.37
2018-07-03T04:15:29.231Z,16.43
2018-07-03T04:16:00.506Z,16.67
2018-07-03T04:16:31.753Z,16.87
2018-07-03T04:17:02.955Z,16.93
2018-07-03T04:17:34.808Z,16.73
2018-07-03T04:18:06.035Z,17.57
2018-07-03T04:18:37.269Z,17.37
2018-07-03T04:19:08.452Z,18.87
2018-07-03T04:19:39.685Z,16.27
2018-07-03T04:20:10.877Z,16.63
2018-07-03T04:20:42.101Z,16.47
2018-07-03T04:21:13.281Z,16.33
2018-07-03T04:21:44.513Z,17.00
2018-07-03T04:22:15.705Z,16.20
2018-07-03T04:22:46.954Z,16.93
2018-07-03T04:23:18.143Z,17.50
2018-07-03T04:23:49.365Z,16.43
2018-07-03T04:24:20.608Z,16.97
2018-07-03T04:24:51.832Z,16.97
2018-07-03T04:25:23.020Z,18.77
2018-07-03T04:25:54.201Z,17.13
2018-07-03T04:26:25.428Z,16.77
2018-07-03T04:26:56.664Z,17.47
2018-07-03T04:27:27.896Z,18.13
2018-07-03T04:27:59.081Z,18.63
2018-07-03T04:28:30.309Z,16.73
2018-07-03T04:29:01.534Z,16.77
2018-07-03T04:29:32.981Z,16.37
2018-07-03T04:30:04.206Z,17.37
2018-07-03T04:30:35.457Z,17.00
2018-07-03T04:31:06.648Z,18.00
2018-07-03T04:31:37.923Z,18.43
2018-07-03T04:32:09.337Z,18.30
2018-07-03T04:32:40.519Z,17.87
2018-07-03T04:33:11.706Z,18.97
2018-07-03T04:33:42.950Z,18.47
2018-07-03T04:34:14.181Z,17.17
2018-07-03T04:34:45.961Z,18.90
2018-07-03T04:35:17.144Z,17.73
2018-07-03T04:35:48.377Z,17.23
2018-07-03T04:36:19.708Z,17.80
2018-07-03T04:36:50.976Z,17.70
2018-07-03T04:37:22.223Z,17.63
2018-07-03T04:37:53.429Z,15.83
2018-07-03T04:38:24.608Z,16.33
2018-07-03T04:38:55.796Z,16.67
2018-07-03T04:39:26.996Z,17.40
2018-07-03T04:39:58.238Z,16.63
2018-07-03T04:40:29.478Z,16.43
2018-07-03T04:41:00.716Z,16.33
2018-07-03T04:41:31.941Z,15.70
2018-07-03T04:42:03.150Z,16.53
2018-07-03T04:42:34.336Z,16.77
2018-07-03T04:43:05.517Z,16.13
2018-07-03T04:43:36.704Z,14.93
2018-07-03T04:44:07.907Z,14.33
2018-07-03T04:44:39.145Z,14.70
2018-07-03T04:45:10.332Z,14.27
2018-07-03T04:45:41.521Z,14.40
2018-07-03T04:46:12.754Z,14.53
2018-07-03T04:46:43.986Z,14.77
2018-07-03T04:47:15.232Z,13.27
2018-07-03T04:47:46.436Z,14.30
2018-07-03T04:48:17.624Z,14.23
2018-07-03T04:48:48.842Z,13.90
2018-07-03T04:49:20.054Z,13.73
2018-07-03T04:49:51.296Z,15.20
2018-07-03T04:50:22.529Z,15.33
2018-07-03T04:50:53.789Z,15.53
2018-07-03T04:51:24.977Z,16.93
2018-07-03T04:51:56.262Z,17.93
2018-07-03T04:52:27.452Z,16.17
2018-07-03T04:52:58.669Z,14.80
2018-07-03T04:53:29.959Z,14.70
2018-07-03T04:54:01.155Z,14.33
2018-07-03T04:54:32.378Z,15.83
2018-07-03T04:55:03.559Z,14.97
2018-07-03T04:55:34.800Z,15.17
2018-07-03T04:56:06.005Z,14.43
2018-07-03T04:56:37.188Z,14.98
2018-07-03T04:57:08.413Z,14.33
2018-07-03T04:57:39.645Z,14.50
2018-07-03T04:58:10.833Z,14.90
2018-07-03T04:58:42.017Z,14.50
2018-07-03T04:59:13.207Z,15.00
2018-07-03T04:59:44.384Z,13.78
2018-07-03T05:00:16.328Z,15.00
2018-07-03T05:00:47.521Z,15.40
2018-07-03T05:01:18.701Z,13.93
2018-07-03T05:01:49.872Z,13.58
2018-07-03T05:02:21.077Z,13.70
2018-07-03T05:02:52.247Z,12.67
2018-07-03T05:03:23.434Z,13.90
2018-07-03T05:03:54.659Z,13.50
2018-07-03T05:04:25.901Z,13.43
2018-07-03T05:04:57.135Z,14.23
2018-07-03T05:05:28.333Z,14.23
2018-07-03T05:05:59.599Z,14.03
2018-07-03T05:06:30.866Z,13.62
2018-07-03T05:07:02.057Z,13.68
2018-07-03T05:07:33.244Z,14.10
2018-07-03T05:08:04.474Z,13.83
2018-07-03T05:08:35.663Z,14.18
2018-07-03T05:09:06.869Z,14.35
2018-07-03T05:09:38.742Z,13.70
2018-07-03T05:10:10.030Z,13.58
2018-07-03T05:10:41.286Z,14.73
2018-07-03T05:11:12.475Z,14.25
2018-07-03T05:12:21.124Z,15.88
2018-07-03T05:12:52.948Z,15.83
2018-07-03T05:13:24.138Z,15.40
2018-07-03T05:13:55.353Z,15.38
2018-07-03T05:14:27.252Z,15.93
2018-07-03T05:14:58.452Z,15.72
2018-07-03T05:15:29.646Z,16.12
2018-07-03T05:16:01.493Z,16.48
2018-07-03T05:16:33.582Z,16.35
2018-07-03T05:17:04.823Z,17.00
2018-07-03T05:17:36.337Z,16.20
2018-07-03T05:18:07.543Z,16.10
2018-07-03T05:18:38.757Z,15.58
2018-07-03T05:19:09.980Z,16.55
2018-07-03T05:19:41.160Z,15.85
2018-07-03T05:20:12.350Z,15.75
2018-07-03T05:20:43.540Z,15.68
2018-07-03T05:21:14.727Z,16.93
2018-07-03T05:21:45.905Z,17.23
2018-07-03T05:22:17.092Z,16.50
2018-07-03T05:22:48.307Z,17.45
2018-07-03T05:23:19.484Z,17.52
2018-07-03T05:23:50.696Z,17.42
2018-07-03T05:24:21.917Z,17.67
2018-07-03T05:24:53.100Z,17.12
2018-07-03T05:25:24.326Z,17.25
2018-07-03T05:25:55.554Z,16.40
2018-07-03T05:26:26.728Z,16.77
2018-07-03T05:26:57.959Z,16.17
2018-07-03T05:27:29.202Z,17.20
2018-07-03T05:28:00.401Z,15.93
2018-07-03T05:28:31.624Z,16.02
2018-07-03T05:29:02.808Z,15.53
2018-07-03T05:29:34.013Z,16.65
2018-07-03T05:30:05.202Z,16.95
2018-07-03T05:30:36.436Z,15.58
2018-07-03T05:31:07.671Z,16.45
2018-07-03T05:31:38.880Z,15.38
2018-07-03T05:32:10.061Z,16.42
2018-07-03T05:32:41.305Z,17.23
2018-07-03T05:33:12.541Z,16.75
2018-07-03T05:33:43.785Z,16.52
2018-07-03T05:34:15.034Z,16.82
2018-07-03T05:34:47.078Z,16.35
2018-07-03T05:35:18.269Z,15.38
2018-07-03T05:35:49.443Z,15.58
2018-07-03T05:36:20.671Z,16.45
2018-07-03T05:36:51.927Z,16.93
2018-07-03T05:37:23.117Z,16.48
2018-07-03T05:37:54.296Z,16.27
2018-07-03T05:38:25.517Z,17.50
2018-07-03T05:38:56.874Z,17.65
2018-07-03T05:39:28.124Z,17.73
2018-07-03T05:39:59.313Z,16.45
2018-07-03T05:40:30.512Z,17.00
2018-07-03T05:41:01.703Z,15.90
2018-07-03T05:41:32.937Z,16.02
2018-07-03T05:42:04.125Z,16.17
2018-07-03T05:42:35.310Z,16.20
2018-07-03T05:43:06.591Z,15.88
2018-07-03T05:43:37.801Z,15.08
2018-07-03T05:44:09.985Z,16.20
2018-07-03T05:44:41.217Z,15.85
2018-07-03T05:45:12.469Z,15.75
2018-07-03T05:45:43.724Z,14.83
2018-07-03T05:46:14.977Z,14.35
2018-07-03T05:46:46.230Z,13.93
2018-07-03T05:47:17.452Z,14.75
2018-07-03T05:47:48.937Z,15.03
2018-07-03T05:48:20.123Z,15.43
2018-07-03T05:48:51.375Z,14.87
2018-07-03T05:49:22.634Z,14.05
2018-07-03T05:49:53.886Z,13.43
2018-07-03T05:50:26.079Z,14.50
2018-07-03T05:50:57.362Z,14.50
2018-07-03T05:51:28.784Z,13.60
2018-07-03T05:51:59.842Z,14.40
2018-07-03T05:52:31.054Z,14.63
2018-07-03T05:53:02.305Z,14.38
2018-07-03T05:53:33.517Z,14.25
2018-07-03T05:54:04.745Z,14.15
2018-07-03T05:54:35.949Z,15.53
2018-07-03T05:55:07.145Z,14.60
2018-07-03T05:55:38.360Z,15.40
2018-07-03T05:56:09.620Z,15.40
2018-07-03T05:56:40.827Z,15.15
2018-07-03T05:57:12.016Z,15.45
2018-07-03T05:57:43.218Z,13.48
2018-07-03T05:58:14.616Z,15.25
2018-07-03T05:58:45.641Z,14.00
2018-07-03T05:59:16.878Z,14.38
2018-07-03T05:59:48.113Z,15.23
2018-07-03T06:00:19.361Z,15.05
2018-07-03T06:00:50.553Z,14.98
2018-07-03T06:01:21.781Z,15.32
2018-07-03T06:01:52.983Z,15.38
2018-07-03T06:02:24.170Z,16.12
2018-07-03T06:02:55.352Z,14.18
2018-07-03T06:03:26.594Z,13.75
2018-07-03T06:03:57.884Z,13.78
2018-07-03T06:04:29.120Z,13.43
2018-07-03T06:05:00.361Z,12.55
2018-07-03T06:05:32.112Z,12.95
2018-07-03T06:06:03.326Z,12.93
2018-07-03T06:06:34.561Z,12.88
2018-07-03T06:07:05.767Z,12.90
2018-07-03T06:07:36.957Z,13.03
2018-07-03T06:08:08.136Z,13.35
2018-07-03T06:08:39.380Z,12.98
2018-07-03T06:09:10.628Z,13.40
2018-07-03T06:09:41.812Z,14.50
2018-07-03T06:10:13.008Z,14.58
2018-07-03T06:10:44.220Z,14.45
2018-07-03T06:11:15.413Z,13.58
2018-07-03T06:11:46.595Z,13.45
2018-07-03T06:12:17.776Z,14.43
2018-07-03T06:12:48.989Z,14.75
2018-07-03T06:13:20.196Z,14.20
2018-07-03T06:13:51.442Z,14.45
2018-07-03T06:14:22.736Z,14.13
2018-07-03T06:14:53.965Z,13.20
2018-07-03T06:15:25.209Z,13.15
2018-07-03T06:15:56.470Z,13.83
2018-07-03T06:16:27.680Z,12.65
2018-07-03T06:16:58.927Z,13.53
2018-07-03T06:17:33.545Z,12.60
2018-07-03T06:18:04.749Z,12.82
2018-07-03T06:18:35.945Z,12.85
2018-07-03T06:19:07.742Z,13.03
2018-07-03T06:19:38.966Z,12.47
2018-07-03T06:20:10.277Z,12.93
2018-07-03T06:20:41.704Z,13.20
2018-07-03T06:21:12.884Z,14.03
2018-07-03T06:21:44.114Z,12.98
2018-07-03T06:22:15.309Z,13.18
2018-07-03T06:22:46.530Z,12.73
2018-07-03T06:23:17.696Z,12.95
2018-07-03T06:23:48.868Z,13.15
2018-07-03T06:24:20.041Z,12.80
2018-07-03T06:24:51.836Z,13.08
2018-07-03T06:25:23.192Z,12.13
2018-07-03T06:25:54.296Z,12.00
2018-07-03T06:26:25.529Z,13.43
2018-07-03T06:26:56.785Z,12.35
2018-07-03T06:27:27.969Z,11.70
2018-07-03T06:27:59.185Z,11.53
2018-07-03T06:28:30.428Z,12.28
2018-07-03T06:29:01.734Z,12.90
2018-07-03T06:29:32.895Z,12.33
2018-07-03T06:30:04.077Z,12.15
2018-07-03T06:30:35.499Z,12.20
2018-07-03T06:31:06.684Z,11.90
2018-07-03T06:31:37.876Z,11.90
2018-07-03T06:32:09.101Z,11.48
2018-07-03T06:32:40.289Z,12.85
2018-07-03T06:33:11.700Z,12.30
2018-07-03T06:33:42.743Z,12.15
2018-07-03T06:34:13.937Z,12.20
2018-07-03T06:34:45.129Z,11.88
2018-07-03T06:35:17.092Z,13.10
2018-07-03T06:35:48.374Z,12.82
2018-07-03T06:36:19.625Z,12.90
2018-07-03T06:36:50.801Z,12.20
2018-07-03T06:37:22.065Z,12.18
2018-07-03T06:37:53.214Z,12.53
2018-07-03T06:38:24.402Z,12.85
2018-07-03T06:38:55.622Z,12.53
2018-07-03T06:39:26.796Z,12.75
2018-07-03T06:39:57.976Z,12.33
2018-07-03T06:40:29.160Z,12.70
2018-07-03T06:41:00.445Z,12.28
2018-07-03T06:41:31.678Z,11.65
2018-07-03T06:42:02.869Z,10.70
2018-07-03T06:42:34.137Z,11.85
2018-07-03T06:43:05.993Z,11.63